Time;durP1;ratioP1;P1;durP2;ratioP2;P2;SDS_P1;SDS_P2;PMS_P1;PMS_P2;Temp;Humidity;BMP_temperature;BMP_pressure;BME280_temperature;BME280_humidity;BME280_pressure;Samples;Min_cycle;Max_cycle;Signal;HPM_P1;HPM_P2
2021/04/28 00:01:54;;;;;;;2.80;1.67;;;;;;;3.32;50.48;100251.95;128357;1101;62055;-77
2021/04/28 00:04:20;;;;;;;2.50;1.40;;;;;;;3.30;50.55;100251.27;128346;1101;62302;-77
2021/04/28 00:06:48;;;;;;;2.80;1.70;;;;;;;3.29;50.57;100246.97;128338;1101;62687;-78
2021/04/28 00:09:20;;;;;;;3.25;1.30;;;;;;;3.28;50.75;100242.71;128383;1101;61893;-77
2021/04/28 00:11:50;;;;;;;6.40;1.43;;;;;;;3.25;51.04;100242.02;128400;1101;62524;-78
2021/04/28 00:14:17;;;;;;;2.10;1.20;;;;;;;3.25;50.66;100241.17;128368;1101;62293;-78
2021/04/28 00:16:43;;;;;;;2.10;1.00;;;;;;;3.21;51.04;100238.02;128364;1101;62724;-78
2021/04/28 00:19:10;;;;;;;1.67;0.90;;;;;;;3.20;51.70;100231.11;128363;1101;62236;-77
2021/04/28 00:21:37;;;;;;;1.30;0.97;;;;;;;3.19;51.24;100232.09;128320;1101;62277;-77
2021/04/28 00:24:04;;;;;;;2.03;1.10;;;;;;;3.16;51.18;100232.34;128393;1101;62225;-78
2021/04/28 00:26:30;;;;;;;5.77;1.80;;;;;;;3.12;51.43;100228.34;128373;1101;62773;-77
2021/04/28 00:28:57;;;;;;;2.33;1.43;;;;;;;3.09;51.47;100226.02;128356;1101;62411;-78
2021/04/28 00:31:23;;;;;;;1.30;0.90;;;;;;;3.09;51.60;100231.25;128343;1101;64179;-78
2021/04/28 00:33:50;;;;;;;3.57;2.23;;;;;;;3.10;51.45;100219.80;128366;1101;62458;-79
2021/04/28 00:36:17;;;;;;;2.43;1.50;;;;;;;3.10;51.43;100217.17;128351;1101;62185;-78
2021/04/28 00:38:45;;;;;;;2.50;1.30;;;;;;;3.10;51.68;100214.55;128380;1101;62817;-78
2021/04/28 00:41:12;;;;;;;2.27;1.40;;;;;;;3.09;51.53;100212.91;128350;1101;62255;-78
2021/04/28 00:43:40;;;;;;;1.90;1.20;;;;;;;3.09;51.53;100212.91;128344;1101;62555;-78
2021/04/28 00:46:07;;;;;;;2.33;1.23;;;;;;;3.08;51.68;100213.86;128384;1101;62349;-78
2021/04/28 00:48:34;;;;;;;1.83;1.10;;;;;;;3.08;51.66;100205.17;128111;1101;62343;-78
2021/04/28 00:51:03;;;;;;;3.43;1.20;;;;;;;3.07;51.67;100201.73;128416;1101;63036;-78
2021/04/28 00:53:30;;;;;;;2.07;1.20;;;;;;;3.06;51.68;100200.09;128387;1101;62245;-78
2021/04/28 00:55:57;;;;;;;1.93;1.00;;;;;;;3.05;52.39;100193.19;128388;1101;62226;-78
2021/04/28 00:58:25;;;;;;;3.23;1.40;;;;;;;3.04;51.78;100199.41;128385;1101;62046;-78
2021/04/28 01:00:53;;;;;;;2.00;1.03;;;;;;;3.02;52.35;100189.05;128380;1101;62348;-78
2021/04/28 01:03:22;;;;;;;2.40;1.10;;;;;;;3.01;51.76;100184.77;128384;1101;63557;-78
2021/04/28 01:05:53;;;;;;;3.67;1.87;;;;;;;3.01;51.90;100182.14;128326;1101;62207;-77
2021/04/28 01:08:20;;;;;;;2.80;0.83;;;;;;;3.00;51.76;100179.69;128425;1101;62055;-78
2021/04/28 01:10:49;;;;;;;2.83;1.40;;;;;;;3.00;51.97;100177.89;128133;1101;62192;-78
2021/04/28 01:13:18;;;;;;;2.93;1.30;;;;;;;3.00;52.30;100177.06;128371;1101;62215;-78
2021/04/28 01:15:45;;;;;;;2.57;1.23;;;;;;;3.00;52.49;100182.30;128381;1101;62738;-77
2021/04/28 01:18:13;;;;;;;4.93;1.67;;;;;;;2.97;52.41;100174.70;128601;1101;62308;-78
2021/04/28 01:20:40;;;;;;;3.40;1.60;;;;;;;2.96;52.20;100183.55;128371;1101;62069;-77
2021/04/28 01:23:13;;;;;;;4.20;1.70;;;;;;;2.92;52.71;100176.92;128369;1101;62306;-77
2021/04/28 01:25:40;;;;;;;2.70;1.03;;;;;;;2.90;52.51;100178.86;128339;1101;62262;-78
2021/04/28 01:28:13;;;;;;;3.27;1.30;;;;;;;2.86;52.84;100176.49;128383;1101;62724;-77
2021/04/28 01:30:55;;;;;;;4.73;2.10;;;;;;;2.84;52.96;100167.95;128360;1101;64074;-77
2021/04/28 01:33:37;;;;;;;4.03;2.23;;;;;;;2.81;52.76;100170.03;128371;1101;62040;-77
2021/04/28 01:36:07;;;;;;;3.80;1.60;;;;;;;2.78;52.84;100176.35;128367;1101;62294;-78
2021/04/28 01:38:44;;;;;;;2.80;1.83;;;;;;;2.74;52.70;100172.38;128370;1101;62198;-78
2021/04/28 01:41:11;;;;;;;4.47;1.90;;;;;;;2.72;52.97;100168.22;128362;1101;64018;-77
2021/04/28 01:43:40;;;;;;;3.97;1.97;;;;;;;2.68;52.95;100167.69;128365;1101;62234;-77
2021/04/28 01:46:08;;;;;;;5.03;1.90;;;;;;;2.65;53.41;100174.00;128094;1101;62134;-78
2021/04/28 01:48:38;;;;;;;4.37;1.67;;;;;;;2.61;53.22;100166.56;128402;1101;63964;-77
2021/04/28 01:51:05;;;;;;;2.87;1.57;;;;;;;2.57;53.31;100162.55;128141;1102;62648;-77
2021/04/28 01:53:33;;;;;;;4.13;2.20;;;;;;;2.54;53.28;100168.08;128330;1101;63171;-77
2021/04/28 01:56:00;;;;;;;3.87;1.93;;;;;;;2.48;53.76;100163.38;128115;1102;62217;-77
2021/04/28 01:58:28;;;;;;;4.63;2.00;;;;;;;2.42;53.81;100160.36;128372;1101;62382;-77
2021/04/28 02:00:55;;;;;;;5.63;1.70;;;;;;;2.38;53.75;100161.58;128366;1101;62487;-77
2021/04/28 02:03:26;;;;;;;3.37;1.80;;;;;;;2.34;54.02;100162.81;128389;1101;62312;-78
2021/04/28 02:05:54;;;;;;;3.53;1.77;;;;;;;2.28;54.33;100160.73;128386;1101;62085;-77
2021/04/28 02:08:21;;;;;;;9.47;3.33;;;;;;;2.23;54.42;100152.44;128366;1101;62538;-77
2021/04/28 02:10:48;;;;;;;4.70;2.57;;;;;;;2.19;54.31;100154.52;128109;1102;62676;-76
2021/04/28 02:13:16;;;;;;;4.60;2.13;;;;;;;2.16;54.89;100146.09;128384;1101;62089;-77
2021/04/28 02:15:44;;;;;;;4.70;1.90;;;;;;;2.14;54.27;100145.41;128408;1101;62147;-78
2021/04/28 02:18:14;;;;;;;4.03;1.87;;;;;;;2.10;54.75;100146.63;128169;1103;62919;-78
2021/04/28 02:20:42;;;;;;;4.13;2.50;;;;;;;2.07;54.88;100146.91;128336;1101;62453;-77
2021/04/28 02:23:09;;;;;;;3.30;2.00;;;;;;;2.05;55.39;100152.27;128107;1102;62584;-77
2021/04/28 02:25:35;;;;;;;4.07;2.13;;;;;;;2.01;55.31;100143.84;128359;1101;62879;-78
2021/04/28 02:28:02;;;;;;;5.60;2.47;;;;;;;2.00;55.18;100146.63;128369;1101;62425;-77
2021/04/28 02:30:32;;;;;;;8.53;2.30;;;;;;;1.97;55.37;100144.25;128098;1101;62261;-77
2021/04/28 02:32:59;;;;;;;3.73;2.00;;;;;;;1.95;56.02;100138.33;128261;1101;62654;-78
2021/04/28 02:35:27;;;;;;;5.30;2.10;;;;;;;1.92;55.56;100139.42;128323;1101;62093;-78
2021/04/28 02:38:12;;;;;;;3.70;2.03;;;;;;;1.93;55.56;100129.78;128348;1101;62229;-77
2021/04/28 02:40:39;;;;;;;9.97;2.30;;;;;;;1.92;55.68;100134.19;128371;1101;62673;-76
2021/04/28 02:43:06;;;;;;;2.93;1.43;;;;;;;1.93;55.64;100130.60;128354;1101;62883;-77
2021/04/28 02:45:35;;;;;;;3.40;1.53;;;;;;;1.94;55.81;100126.22;128381;1101;62250;-77
2021/04/28 02:48:03;;;;;;;8.33;2.87;;;;;;;1.93;56.19;100125.38;128350;1101;62473;-78
2021/04/28 02:50:30;;;;;;;2.17;0.97;;;;;;;1.96;56.40;100116.45;128360;1101;61988;-78
2021/04/28 02:52:58;;;;;;;3.53;1.90;;;;;;;1.96;55.95;100119.89;128379;1101;62088;-78
2021/04/28 02:55:26;;;;;;;4.73;1.97;;;;;;;1.99;55.94;100114.38;128371;1101;62828;-78
2021/04/28 02:57:53;;;;;;;2.83;1.90;;;;;;;2.00;55.88;100117.84;128359;1101;62137;-77
2021/04/28 03:00:21;;;;;;;5.33;2.20;;;;;;;2.01;55.84;100117.69;128369;1101;62034;-78
2021/04/28 03:02:50;;;;;;;2.50;0.93;;;;;;;2.02;56.06;100113.31;128365;1101;62308;-78
2021/04/28 03:05:21;;;;;;;5.33;1.80;;;;;;;2.02;56.02;100119.36;128333;1101;62869;-78
2021/04/28 03:07:47;;;;;;;7.33;2.03;;;;;;;1.99;56.29;100110.94;128356;1101;64861;-78
2021/04/28 03:10:16;;;;;;;3.40;1.63;;;;;;;1.98;55.89;100117.16;128087;1101;62454;-77
2021/04/28 03:12:47;;;;;;;3.87;1.70;;;;;;;1.96;56.25;100114.66;128387;1101;62176;-77
2021/04/28 03:15:16;;;;;;;3.07;1.50;;;;;;;1.93;56.29;100112.30;128365;1101;62348;-77
2021/04/28 03:17:47;;;;;;;1.83;1.30;;;;;;;1.93;56.28;100111.47;128373;1101;62032;-78
2021/04/28 03:20:15;;;;;;;5.30;2.10;;;;;;;1.89;56.10;100110.08;128380;1101;62724;-78
2021/04/28 03:22:42;;;;;;;5.33;2.60;;;;;;;1.86;56.27;100112.98;128310;1101;62602;-78
2021/04/28 03:25:11;;;;;;;6.40;2.33;;;;;;;1.80;56.51;100112.53;128096;1102;62300;-77
2021/04/28 03:27:38;;;;;;;8.03;2.17;;;;;;;1.77;56.41;100104.97;128361;1101;62268;-78
2021/04/28 03:30:07;;;;;;;4.17;2.33;;;;;;;1.75;57.02;100114.73;128359;1101;62127;-78
2021/04/28 03:32:34;;;;;;;3.30;1.67;;;;;;;1.72;56.65;100116.77;128403;1101;62355;-78
2021/04/28 03:35:01;;;;;;;4.27;2.40;;;;;;;1.67;57.03;100105.89;128398;1101;62224;-78
2021/04/28 03:37:27;;;;;;;4.60;2.20;;;;;;;1.61;56.77;100102.00;128146;1101;62304;-78
2021/04/28 03:39:54;;;;;;;3.33;1.53;;;;;;;1.60;57.54;100109.03;128104;1102;62056;-78
2021/04/28 03:42:23;;;;;;;7.07;2.30;;;;;;;1.54;57.05;100106.94;128348;1101;62387;-78
2021/04/28 03:44:52;;;;;;;4.37;2.60;;;;;;;1.53;57.52;100109.67;128413;1101;62944;-78
2021/04/28 03:47:19;;;;;;;5.50;2.40;;;;;;;1.49;57.17;100111.74;128372;1101;62569;-77
2021/04/28 03:49:46;;;;;;;3.43;1.87;;;;;;;1.48;57.64;100120.53;128418;1101;62109;-78
2021/04/28 03:52:13;;;;;;;5.00;2.53;;;;;;;1.45;58.09;100115.57;128405;1101;62798;-78
2021/04/28 03:54:40;;;;;;;5.30;2.27;;;;;;;1.43;57.97;100112.27;128346;1101;63001;-79
2021/04/28 03:57:08;;;;;;;5.37;3.17;;;;;;;1.39;57.83;100116.09;128181;1102;62816;-81
2021/04/28 03:59:35;;;;;;;5.03;2.50;;;;;;;1.36;58.12;100121.56;128400;1101;63121;-78
2021/04/28 04:02:04;;;;;;;4.47;2.63;;;;;;;1.32;57.80;100120.16;128399;1101;62305;-78
2021/04/28 04:04:34;;;;;;;5.13;2.23;;;;;;;1.28;58.48;100121.41;128433;1101;62069;-77
2021/04/28 04:07:01;;;;;;;4.53;2.60;;;;;;;1.26;58.48;100116.30;127956;1101;62333;-78
2021/04/28 04:09:27;;;;;;;5.00;2.67;;;;;;;1.24;58.80;100114.78;128210;1101;62832;-79
2021/04/28 04:11:54;;;;;;;4.03;2.40;;;;;;;1.24;59.38;100114.78;128107;1102;64075;-78
2021/04/28 04:14:22;;;;;;;6.23;3.13;;;;;;;1.22;58.92;100118.33;128356;1101;62597;-78
2021/04/28 04:16:48;;;;;;;7.23;2.43;;;;;;;1.22;59.18;100110.49;128352;1101;62276;-78
2021/04/28 04:19:15;;;;;;;5.50;2.50;;;;;;;1.24;59.24;100112.16;128093;1101;62209;-78
2021/04/28 04:21:42;;;;;;;7.23;2.77;;;;;;;1.25;58.73;100108.58;128358;1101;63507;-78
2021/04/28 04:24:09;;;;;;;4.70;2.50;;;;;;;1.26;59.26;100111.08;128375;1101;62177;-78
2021/04/28 04:26:35;;;;;;;5.40;2.57;;;;;;;1.29;59.01;100120.43;128407;1101;62250;-78
2021/04/28 04:29:03;;;;;;;5.47;3.00;;;;;;;1.32;59.05;100114.94;128367;1101;61813;-79
2021/04/28 04:31:34;;;;;;;5.83;2.03;;;;;;;1.34;58.86;100116.48;128135;1102;62180;-78
2021/04/28 04:34:01;;;;;;;3.57;2.33;;;;;;;1.37;59.04;100108.38;128395;1101;62106;-78
2021/04/28 04:36:28;;;;;;;5.17;2.60;;;;;;;1.38;59.33;100117.88;128369;1101;62361;-78
2021/04/28 04:38:54;;;;;;;7.33;2.80;;;;;;;1.42;59.00;100106.22;128400;1101;62058;-78
2021/04/28 04:41:21;;;;;;;4.00;2.17;;;;;;;1.46;59.04;100122.44;128130;1102;62278;-77
2021/04/28 04:43:48;;;;;;;7.40;2.67;;;;;;;1.49;58.87;100116.97;128187;1101;62265;-77
2021/04/28 04:46:14;;;;;;;8.73;2.33;;;;;;;1.39;58.82;100100.41;128375;1101;62559;-78
2021/04/28 04:48:41;;;;;;;7.77;2.60;;;;;;;1.58;58.92;100118.79;128326;1101;62378;-77
2021/04/28 04:51:08;;;;;;;5.83;2.17;;;;;;;1.66;58.98;100122.52;128402;1101;62299;-77
2021/04/28 04:53:34;;;;;;;3.30;2.23;;;;;;;1.72;59.04;100122.84;128392;1101;62616;-77
2021/04/28 04:56:02;;;;;;;4.17;2.00;;;;;;;1.80;58.88;100119.55;128417;1101;62161;-78
2021/04/28 04:58:28;;;;;;;4.00;2.00;;;;;;;1.89;58.93;100120.55;128123;1102;62781;-79
2021/04/28 05:00:58;;;;;;;6.30;2.63;;;;;;;1.96;58.69;100119.89;128312;1101;62231;-77
2021/04/28 05:03:24;;;;;;;4.23;2.00;;;;;;;2.06;58.80;100113.84;128388;1101;61962;-78
2021/04/28 05:05:51;;;;;;;4.00;1.80;;;;;;;2.15;58.66;100110.45;128072;1101;62918;-78
2021/04/28 05:08:18;;;;;;;5.07;2.23;;;;;;;2.25;58.28;100113.88;128178;1101;62509;-78
2021/04/28 05:10:45;;;;;;;4.80;2.13;;;;;;;2.35;58.60;100109.48;128405;1101;62880;-78
2021/04/28 05:13:12;;;;;;;3.07;1.90;;;;;;;2.46;58.01;100111.15;128351;1101;62386;-76
2021/04/28 05:15:40;;;;;;;4.30;2.40;;;;;;;2.60;57.59;100110.75;128127;1102;62267;-76
2021/04/28 05:18:07;;;;;;;8.20;3.47;;;;;;;2.74;57.44;100114.76;128383;1101;62048;-76
2021/04/28 05:20:33;;;;;;;4.17;1.57;;;;;;;2.86;56.82;100113.63;128448;1101;62324;-77
2021/04/28 05:23:00;;;;;;;4.70;1.63;;;;;;;2.99;56.67;100112.52;128410;1101;62946;-77
2021/04/28 05:25:27;;;;;;;6.43;2.57;;;;;;;3.11;56.23;100103.53;128364;1101;62147;-75
2021/04/28 05:27:53;;;;;;;4.03;2.00;;;;;;;3.23;56.35;100105.03;128332;1101;63138;-75
2021/04/28 05:30:25;;;;;;;4.60;2.23;;;;;;;3.38;56.01;100101.93;128112;1101;62851;-76
2021/04/28 05:32:51;;;;;;;4.23;1.87;;;;;;;3.49;55.75;100104.39;128366;1101;62275;-76
2021/04/28 05:35:18;;;;;;;2.57;1.53;;;;;;;3.61;55.69;100099.78;128238;1101;62433;-76
2021/04/28 05:37:45;;;;;;;3.00;1.47;;;;;;;3.72;55.53;100114.50;128325;1101;62178;-76
2021/04/28 05:40:13;;;;;;;3.63;1.73;;;;;;;3.83;55.48;100111.72;128267;1101;62052;-76
2021/04/28 05:42:39;;;;;;;5.07;2.00;;;;;;;3.93;55.70;100111.64;128348;1101;62354;-76
2021/04/28 05:45:08;;;;;;;2.83;1.40;;;;;;;4.03;55.58;100113.24;128418;1101;62446;-76
2021/04/28 05:47:35;;;;;;;2.10;1.50;;;;;;;4.16;54.53;100105.02;128274;1101;62918;-77
2021/04/28 05:50:05;;;;;;;3.60;1.37;;;;;;;4.28;54.83;100105.64;128368;1101;62254;-75
2021/04/28 05:52:32;;;;;;;3.73;1.40;;;;;;;4.39;54.54;100101.97;128120;1102;62153;-76
2021/04/28 05:54:58;;;;;;;3.07;1.17;;;;;;;4.51;53.92;100105.22;128379;1101;62213;-76
2021/04/28 05:57:33;;;;;;;2.73;1.23;;;;;;;4.62;53.39;100104.98;128363;1101;62815;-75
2021/04/28 06:00:01;;;;;;;3.63;1.83;;;;;;;4.72;53.22;100103.10;127822;1101;63219;-75
2021/04/28 06:02:27;;;;;;;5.10;1.90;;;;;;;4.83;53.65;100105.48;128396;1101;62317;-76
2021/04/28 06:04:54;;;;;;;2.53;1.67;;;;;;;4.94;52.65;100106.23;128346;1101;62628;-77
2021/04/28 06:07:21;;;;;;;2.73;1.73;;;;;;;5.04;52.79;100096.45;127797;1101;64313;-75
2021/04/28 06:09:48;;;;;;;3.67;2.03;;;;;;;5.16;52.31;100100.45;128210;1101;62021;-76
2021/04/28 06:12:14;;;;;;;3.77;1.97;;;;;;;5.30;52.08;100101.70;128116;1101;63309;-76
2021/04/28 06:14:41;;;;;;;5.20;2.13;;;;;;;5.42;52.24;100091.73;128140;1101;64375;-76
2021/04/28 06:17:07;;;;;;;3.00;1.57;;;;;;;5.56;50.76;100100.85;128353;1101;62212;-76
2021/04/28 06:19:34;;;;;;;2.77;1.43;;;;;;;5.66;51.34;100096.30;128298;1101;63954;-77
2021/04/28 06:22:01;;;;;;;4.30;2.57;;;;;;;5.76;50.51;100097.02;128444;1095;62261;-77
2021/04/28 06:24:34;;;;;;;3.87;1.50;;;;;;;5.86;49.77;100092.42;128442;1101;62583;-77
2021/04/28 06:27:01;;;;;;;5.20;2.13;;;;;;;5.97;50.06;100088.73;128376;1101;64135;-77
2021/04/28 06:29:28;;;;;;;5.17;1.83;;;;;;;6.11;50.09;100088.09;128463;1101;62249;-76
2021/04/28 06:31:54;;;;;;;1.60;1.00;;;;;;;6.23;49.13;100088.63;128224;1101;62289;-76
2021/04/28 06:34:22;;;;;;;4.53;2.50;;;;;;;6.32;49.78;100079.73;128456;1101;62220;-76
2021/04/28 06:36:49;;;;;;;4.17;2.20;;;;;;;6.43;49.04;100081.23;128395;1101;63914;-78
2021/04/28 06:39:15;;;;;;;4.10;2.40;;;;;;;6.55;48.46;100076.48;128389;1101;62327;-77
2021/04/28 06:41:44;;;;;;;4.17;1.87;;;;;;;6.69;48.33;100067.08;128353;1101;62126;-75
2021/04/28 06:44:11;;;;;;;3.50;1.60;;;;;;;6.82;48.18;100075.34;128406;1101;62389;-75
2021/04/28 06:46:38;;;;;;;3.87;1.90;;;;;;;6.91;48.40;100071.69;128440;1101;62281;-75
2021/04/28 06:49:04;;;;;;;5.30;1.93;;;;;;;7.02;47.84;100067.07;128448;1101;62870;-75
2021/04/28 06:51:31;;;;;;;4.20;2.07;;;;;;;7.11;47.09;100072.15;128406;1101;62985;-76
2021/04/28 06:54:01;;;;;;;4.10;2.00;;;;;;;7.21;47.21;100071.97;128435;1101;62351;-76
2021/04/28 06:56:28;;;;;;;2.87;1.70;;;;;;;7.34;46.97;100061.71;128441;1101;62375;-76
2021/04/28 06:58:55;;;;;;;2.23;1.40;;;;;;;7.47;46.45;100069.09;128463;1101;62196;-76
2021/04/28 07:01:21;;;;;;;5.53;2.47;;;;;;;7.61;46.64;100066.73;128396;1101;62769;-75
2021/04/28 07:03:49;;;;;;;5.07;2.20;;;;;;;7.69;46.27;100064.05;128462;1101;62137;-75
2021/04/28 07:06:16;;;;;;;4.30;2.13;;;;;;;7.79;46.26;100074.42;128186;1101;62133;-73
2021/04/28 07:08:42;;;;;;;4.03;2.33;;;;;;;7.87;46.03;100069.92;128466;1101;62417;-74
2021/04/28 07:11:09;;;;;;;3.67;2.00;;;;;;;7.97;45.68;100061.80;128460;1101;62228;-74
2021/04/28 07:13:36;;;;;;;3.83;2.33;;;;;;;8.06;45.61;100068.67;128461;1101;62779;-73
2021/04/28 07:16:03;;;;;;;5.63;2.40;;;;;;;8.19;45.88;100064.64;128410;1101;62178;-73
2021/04/28 07:18:30;;;;;;;2.20;1.40;;;;;;;8.30;45.18;100069.52;128442;1101;62287;-73
2021/04/28 07:20:57;;;;;;;4.53;2.07;;;;;;;8.40;44.72;100061.37;128402;1101;62161;-73
2021/04/28 07:23:23;;;;;;;4.10;2.63;;;;;;;8.51;45.18;100063.63;128127;1101;62124;-73
2021/04/28 07:25:50;;;;;;;4.30;1.93;;;;;;;8.61;43.71;100066.00;128282;1101;62790;-74
2021/04/28 07:28:17;;;;;;;3.30;2.03;;;;;;;8.69;44.39;100058.86;128399;1101;62380;-76
2021/04/28 07:30:44;;;;;;;4.73;2.57;;;;;;;8.80;44.29;100057.61;128355;1101;62422;-76
2021/04/28 07:33:11;;;;;;;6.00;2.10;;;;;;;8.92;44.07;100057.98;128414;1101;62265;-75
2021/04/28 07:35:38;;;;;;;4.33;2.77;;;;;;;8.98;43.66;100050.14;128398;1101;62263;-75
2021/04/28 07:38:04;;;;;;;4.23;1.80;;;;;;;9.04;42.66;100040.67;128455;1101;62150;-75
2021/04/28 07:40:32;;;;;;;4.83;2.80;;;;;;;9.11;43.64;100053.99;128388;1101;62491;-76
2021/04/28 07:42:59;;;;;;;5.00;2.60;;;;;;;9.12;42.74;100042.42;128211;1101;62297;-76
2021/04/28 07:45:26;;;;;;;7.20;3.07;;;;;;;9.14;43.62;100048.36;128449;1101;63011;-76
2021/04/28 07:47:52;;;;;;;3.23;2.33;;;;;;;9.15;42.90;100050.80;128491;1101;62025;-74
2021/04/28 07:50:24;;;;;;;4.03;2.27;;;;;;;9.22;42.83;100056.19;128422;1101;62988;-75
2021/04/28 07:52:50;;;;;;;3.73;1.97;;;;;;;9.33;43.46;100055.75;128405;1101;62146;-75
2021/04/28 07:55:17;;;;;;;4.40;2.53;;;;;;;9.39;42.32;100049.73;128461;1101;62183;-75
2021/04/28 07:57:45;;;;;;;7.20;3.20;;;;;;;9.50;42.78;100053.73;128275;1101;62294;-75
2021/04/28 08:00:13;;;;;;;6.37;3.10;;;;;;;9.58;42.90;100045.70;128415;1101;62491;-75
2021/04/28 08:02:40;;;;;;;3.27;1.80;;;;;;;9.67;42.22;100051.72;128418;1101;61999;-75
2021/04/28 08:05:08;;;;;;;5.67;2.77;;;;;;;9.80;42.35;100041.27;128275;1096;62396;-74
2021/04/28 08:07:35;;;;;;;7.07;2.67;;;;;;;9.89;42.48;100044.63;128461;1101;62014;-74
2021/04/28 08:10:04;;;;;;;6.00;2.93;;;;;;;9.97;41.86;100046.36;128416;1101;62262;-74
2021/04/28 08:12:32;;;;;;;4.60;2.40;;;;;;;10.01;41.74;100047.63;128380;1101;62504;-74
2021/04/28 08:15:00;;;;;;;6.53;2.67;;;;;;;10.18;41.63;100050.88;128264;1101;62904;-74
2021/04/28 08:17:30;;;;;;;4.30;1.50;;;;;;;10.35;42.08;100046.99;128399;1101;62284;-76
2021/04/28 08:19:58;;;;;;;5.87;3.03;;;;;;;10.48;42.11;100050.78;128417;1101;62186;-75
2021/04/28 08:22:26;;;;;;;6.37;2.73;;;;;;;10.52;40.11;100049.36;128432;1101;62344;-76
2021/04/28 08:24:55;;;;;;;9.77;3.37;;;;;;;10.59;41.17;100056.38;128474;1101;62090;-75
2021/04/28 08:27:23;;;;;;;5.47;2.73;;;;;;;10.69;41.50;100042.80;128393;1100;62781;-75
2021/04/28 08:29:50;;;;;;;7.30;3.03;;;;;;;10.82;42.28;100047.39;128305;1101;62555;-74
2021/04/28 08:32:17;;;;;;;4.83;2.70;;;;;;;10.98;40.68;100044.43;128448;1101;62529;-74
2021/04/28 08:34:45;;;;;;;5.83;2.93;;;;;;;11.10;40.83;100043.91;128376;1101;63079;-74
2021/04/28 08:37:12;;;;;;;4.40;2.73;;;;;;;11.23;41.06;100043.99;128306;1101;62287;-76
2021/04/28 08:39:38;;;;;;;3.03;1.87;;;;;;;11.37;40.45;100035.09;128387;1101;62076;-76
2021/04/28 08:42:05;;;;;;;4.75;2.80;;;;;;;11.50;40.39;100038.84;128482;1101;62225;-76
2021/04/28 08:44:32;;;;;;;5.70;3.30;;;;;;;11.67;39.50;100036.64;128474;1101;62267;-76
2021/04/28 08:46:59;;;;;;;6.97;3.03;;;;;;;11.78;39.87;100041.41;128370;1101;62577;-76
2021/04/28 08:49:26;;;;;;;7.53;2.83;;;;;;;11.94;38.91;100034.94;128481;1101;61726;-76
2021/04/28 08:51:56;;;;;;;6.13;2.63;;;;;;;12.00;38.65;100028.81;128102;1101;62437;-76
2021/04/28 08:54:43;;;;;;;7.63;2.80;;;;;;;12.11;38.59;100035.39;128185;1101;62080;-76
2021/04/28 08:57:10;;;;;;;5.37;3.40;;;;;;;12.19;38.07;100028.04;128131;1102;62280;-77
2021/04/28 08:59:39;;;;;;;7.47;2.70;;;;;;;12.33;38.44;100022.77;128362;1101;64013;-76
2021/04/28 09:02:22;;;;;;;7.73;3.20;;;;;;;12.38;37.90;100022.95;128175;1102;62301;-76
2021/04/28 09:05:07;;;;;;;5.57;3.40;;;;;;;12.51;38.07;100028.28;128428;1101;62635;-76
2021/04/28 09:07:34;;;;;;;7.73;3.50;;;;;;;12.71;37.79;100020.31;128409;1101;62498;-76
2021/04/28 09:10:04;;;;;;;8.33;3.50;;;;;;;12.85;37.07;100021.11;128195;1102;62001;-76
2021/04/28 09:12:31;;;;;;;5.17;3.00;;;;;;;12.90;37.03;100016.01;128446;1101;62024;-76
2021/04/28 09:14:58;;;;;;;12.97;3.60;;;;;;;13.02;36.95;100022.31;128457;1101;62114;-76
2021/04/28 09:17:24;;;;;;;6.10;2.40;;;;;;;13.08;36.40;100010.03;128190;1101;63505;-77
2021/04/28 09:20:16;;;;;;;6.80;3.63;;;;;;;13.17;37.25;100002.63;128440;1101;62021;-75
2021/04/28 09:22:50;;;;;;;3.53;2.63;;;;;;;13.30;37.19;100007.94;128185;1101;62439;-75
2021/04/28 09:25:44;;;;;;;5.20;3.20;;;;;;;13.39;36.70;100005.89;128480;1101;62040;-75
2021/04/28 09:28:37;;;;;;;4.70;2.77;;;;;;;13.55;36.90;100000.06;128462;1101;62195;-75
2021/04/28 09:31:07;;;;;;;5.87;2.93;;;;;;;13.66;35.47;99995.92;128420;1101;62319;-74
2021/04/28 09:33:43;;;;;;;5.10;3.40;;;;;;;13.77;36.06;99995.27;128492;1101;62180;-74
2021/04/28 09:36:12;;;;;;;6.80;3.47;;;;;;;13.95;35.99;100004.40;128450;1101;62076;-74
2021/04/28 09:38:56;;;;;;;5.87;3.13;;;;;;;14.10;35.19;99991.58;128440;1101;62419;-74
2021/04/28 09:41:29;;;;;;;6.67;4.20;;;;;;;14.28;34.70;99999.67;128453;1101;62430;-75
2021/04/28 09:44:22;;;;;;;7.60;3.43;;;;;;;14.43;34.66;99991.35;128244;1102;62230;-75
2021/04/28 09:46:59;;;;;;;6.63;4.00;;;;;;;14.49;33.80;99986.97;128116;1101;62146;-75
2021/04/28 09:49:45;;;;;;;6.57;4.67;;;;;;;14.57;34.69;99992.08;128456;1101;62019;-75
2021/04/28 09:52:12;;;;;;;7.35;4.13;;;;;;;14.70;34.07;99985.80;128448;1101;62147;-73
2021/04/28 09:54:43;;;;;;;7.70;4.27;;;;;;;14.82;35.02;99984.05;128302;1101;62324;-74
2021/04/28 09:57:14;;;;;;;10.50;4.93;;;;;;;14.99;34.96;99981.63;128476;1101;63993;-73
2021/04/28 09:59:45;;;;;;;8.33;5.43;;;;;;;15.15;33.79;99982.07;128361;1101;62255;-73
2021/04/28 10:02:39;;;;;;;7.70;4.30;;;;;;;15.22;33.73;99977.48;128364;1101;62051;-74
2021/04/28 10:05:19;;;;;;;4.07;3.00;;;;;;;15.32;33.92;99980.43;128385;1101;62317;-76
2021/04/28 10:07:52;;;;;;;8.60;4.10;;;;;;;15.47;34.52;99980.89;128151;1101;62318;-75
2021/04/28 10:10:22;;;;;;;9.60;6.10;;;;;;;15.59;33.70;99977.44;128452;1101;63942;-76
2021/04/28 10:12:49;;;;;;;9.50;4.70;;;;;;;15.73;32.96;99976.27;128458;1101;62479;-76
2021/04/28 10:15:15;;;;;;;9.47;5.47;;;;;;;15.81;32.79;99973.28;128111;1101;62336;-76
2021/04/28 10:17:44;;;;;;;9.53;4.63;;;;;;;15.92;33.49;99968.17;128417;1101;62664;-76
2021/04/28 10:20:11;;;;;;;12.97;5.33;;;;;;;16.00;32.90;99966.02;128226;1102;63240;-74
2021/04/28 10:22:38;;;;;;;12.13;4.27;;;;;;;16.18;33.57;99965.11;128134;1101;63751;-75
2021/04/28 10:25:07;;;;;;;9.33;5.63;;;;;;;16.31;31.90;99961.41;128161;1102;62321;-77
2021/04/28 10:27:39;;;;;;;11.83;6.60;;;;;;;16.38;31.30;99953.27;128367;1101;62447;-75
2021/04/28 10:30:07;;;;;;;9.30;4.77;;;;;;;16.43;30.70;99956.09;128467;1101;62271;-78
2021/04/28 10:32:35;;;;;;;7.67;4.77;;;;;;;16.45;30.86;99954.80;128444;1101;62600;-79
2021/04/28 10:35:07;;;;;;;10.90;5.93;;;;;;;16.52;31.76;99952.01;128423;1101;62250;-78
2021/04/28 10:37:37;;;;;;;10.23;5.87;;;;;;;16.67;30.98;99957.70;128423;1101;62342;-77
2021/04/28 10:40:14;;;;;;;7.40;5.37;;;;;;;16.69;31.63;99950.26;128465;1101;62069;-76
2021/04/28 10:42:42;;;;;;;9.20;5.80;;;;;;;16.83;31.90;99955.40;128211;1101;62181;-76
2021/04/28 10:45:36;;;;;;;7.80;4.90;;;;;;;17.00;30.91;99942.94;128374;1101;62231;-76
2021/04/28 10:48:11;;;;;;;8.87;5.53;;;;;;;17.12;30.64;99948.26;128411;1101;62408;-75
2021/04/28 10:50:45;;;;;;;6.80;4.60;;;;;;;17.26;31.08;99932.74;128404;1101;62265;-75
2021/04/28 10:53:23;;;;;;;14.08;6.88;;;;;;;17.29;30.26;99927.70;128414;1101;64333;-77
2021/04/28 10:55:50;;;;;;;12.73;6.80;;;;;;;17.32;29.96;99926.43;128183;1102;62430;-74
2021/04/28 10:58:23;;;;;;;7.13;4.80;;;;;;;17.41;30.96;99927.67;128372;1101;62075;-75
2021/04/28 11:01:04;;;;;;;13.83;7.37;;;;;;;17.48;30.34;99931.02;128378;1101;62028;-74
2021/04/28 11:03:41;;;;;;;9.47;5.90;;;;;;;17.56;30.90;99920.98;128449;1101;62401;-77
2021/04/28 11:06:26;;;;;;;11.50;6.70;;;;;;;17.76;30.68;99915.96;128351;1101;62023;-77
2021/04/28 11:08:55;;;;;;;7.90;6.20;;;;;;;18.03;31.30;99905.46;128454;1101;61987;-76
2021/04/28 11:17:22;;;;;;;13.30;6.70;;;;;;;18.57;29.67;99910.30;128457;1101;62230;-76
2021/04/28 11:19:53;;;;;;;9.63;6.00;;;;;;;18.53;28.80;99906.48;128310;1101;61985;-76
2021/04/28 11:22:27;;;;;;;11.17;5.80;;;;;;;18.31;28.10;99901.86;128461;1101;61995;-76
2021/04/28 11:24:54;;;;;;;;;;;;;;;18.27;29.40;99906.09;128455;1101;63919;-77
2021/04/28 11:27:45;;;;;;;10.53;6.37;;;;;;;18.39;30.30;99903.34;128402;1101;62387;-77
2021/04/28 11:30:17;;;;;;;9.83;4.80;;;;;;;18.61;29.50;99897.19;128290;1101;64291;-76
2021/04/28 11:33:05;;;;;;;8.47;5.60;;;;;;;18.70;29.07;99893.84;128307;1101;62039;-77
2021/04/28 11:35:33;;;;;;;11.83;5.90;;;;;;;18.89;30.00;99888.19;128462;1101;62978;-77
2021/04/28 11:38:03;;;;;;;8.87;6.10;;;;;;;18.91;27.82;99880.69;128339;1101;62341;-77
2021/04/28 11:40:30;;;;;;;9.43;5.97;;;;;;;19.01;28.95;99880.01;128372;1101;62116;-77